sensor_id;sensor_type;location;lat;lon;timestamp;P1;durP1;ratioP1;P2;durP2;ratioP2
13720;SDS011;6932;51.438;5.470;2023-05-10T00:01:08;9.60;;;6.03;;
13720;SDS011;6932;51.438;5.470;2023-05-10T00:03:33;9.67;;;6.53;;
13720;SDS011;6932;51.438;5.470;2023-05-10T00:05:59;9.23;;;6.00;;
13720;SDS011;6932;51.438;5.470;2023-05-10T00:08:25;9.67;;;6.40;;
13720;SDS011;6932;51.438;5.470;2023-05-10T00:10:51;10.60;;;7.00;;
13720;SDS011;6932;51.438;5.470;2023-05-10T00:13:18;12.53;;;7.77;;
13720;SDS011;6932;51.438;5.470;2023-05-10T00:15:44;11.17;;;7.60;;
13720;SDS011;6932;51.438;5.470;2023-05-10T00:18:10;10.70;;;7.63;;
13720;SDS011;6932;51.438;5.470;2023-05-10T00:20:36;12.60;;;8.87;;
13720;SDS011;6932;51.438;5.470;2023-05-10T00:23:01;11.90;;;8.37;;
13720;SDS011;6932;51.438;5.470;2023-05-10T00:25:27;13.40;;;9.40;;
13720;SDS011;6932;51.438;5.470;2023-05-10T00:27:53;13.13;;;9.17;;
13720;SDS011;6932;51.438;5.470;2023-05-10T00:30:20;12.77;;;8.97;;
13720;SDS011;6932;51.438;5.470;2023-05-10T00:32:46;12.47;;;9.33;;
13720;SDS011;6932;51.438;5.470;2023-05-10T00:35:13;14.13;;;9.37;;
13720;SDS011;6932;51.438;5.470;2023-05-10T00:37:39;14.10;;;10.00;;
13720;SDS011;6932;51.438;5.470;2023-05-10T00:40:05;15.03;;;10.40;;
13720;SDS011;6932;51.438;5.470;2023-05-10T00:42:32;14.37;;;10.50;;
13720;SDS011;6932;51.438;5.470;2023-05-10T00:44:58;14.40;;;10.90;;
13720;SDS011;6932;51.438;5.470;2023-05-10T00:47:24;14.73;;;10.80;;
13720;SDS011;6932;51.438;5.470;2023-05-10T00:49:49;15.00;;;10.90;;
13720;SDS011;6932;51.438;5.470;2023-05-10T00:52:16;14.30;;;10.57;;
13720;SDS011;6932;51.438;5.470;2023-05-10T00:54:42;14.70;;;10.77;;
13720;SDS011;6932;51.438;5.470;2023-05-10T00:57:08;15.53;;;11.00;;
13720;SDS011;6932;51.438;5.470;2023-05-10T00:59:34;14.53;;;10.70;;
13720;SDS011;6932;51.438;5.470;2023-05-10T01:02:00;13.97;;;10.07;;
13720;SDS011;6932;51.438;5.470;2023-05-10T01:04:26;14.73;;;11.23;;
13720;SDS011;6932;51.438;5.470;2023-05-10T01:06:53;15.23;;;10.83;;
13720;SDS011;6932;51.438;5.470;2023-05-10T01:09:19;15.40;;;10.93;;
13720;SDS011;6932;51.438;5.470;2023-05-10T01:11:47;16.30;;;12.30;;
13720;SDS011;6932;51.438;5.470;2023-05-10T01:14:14;16.73;;;12.33;;
13720;SDS011;6932;51.438;5.470;2023-05-10T01:16:43;16.67;;;12.40;;
13720;SDS011;6932;51.438;5.470;2023-05-10T01:19:12;16.70;;;12.57;;
13720;SDS011;6932;51.438;5.470;2023-05-10T01:33:54;20.37;;;14.33;;
13720;SDS011;6932;51.438;5.470;2023-05-10T01:36:51;20.23;;;14.50;;
13720;SDS011;6932;51.438;5.470;2023-05-10T01:39:40;20.07;;;14.13;;
13720;SDS011;6932;51.438;5.470;2023-05-10T01:42:28;19.67;;;13.97;;
13720;SDS011;6932;51.438;5.470;2023-05-10T01:45:14;18.53;;;13.83;;
13720;SDS011;6932;51.438;5.470;2023-05-10T01:47:46;18.37;;;13.63;;
13720;SDS011;6932;51.438;5.470;2023-05-10T01:50:30;18.10;;;13.23;;
13720;SDS011;6932;51.438;5.470;2023-05-10T01:52:59;18.47;;;13.10;;
13720;SDS011;6932;51.438;5.470;2023-05-10T01:55:28;18.77;;;13.43;;
13720;SDS011;6932;51.438;5.470;2023-05-10T01:58:03;18.63;;;13.57;;
13720;SDS011;6932;51.438;5.470;2023-05-10T02:00:34;18.73;;;13.17;;
13720;SDS011;6932;51.438;5.470;2023-05-10T02:03:07;18.53;;;14.00;;
13720;SDS011;6932;51.438;5.470;2023-05-10T02:05:36;17.83;;;13.50;;
13720;SDS011;6932;51.438;5.470;2023-05-10T02:08:05;18.83;;;13.73;;
13720;SDS011;6932;51.438;5.470;2023-05-10T02:10:35;18.67;;;14.10;;
13720;SDS011;6932;51.438;5.470;2023-05-10T02:13:04;19.07;;;13.83;;
13720;SDS011;6932;51.438;5.470;2023-05-10T02:15:32;18.53;;;14.50;;
13720;SDS011;6932;51.438;5.470;2023-05-10T02:18:00;18.47;;;13.83;;
13720;SDS011;6932;51.438;5.470;2023-05-10T02:20:27;18.90;;;14.63;;
13720;SDS011;6932;51.438;5.470;2023-05-10T02:22:57;18.57;;;14.23;;
13720;SDS011;6932;51.438;5.470;2023-05-10T02:25:24;19.67;;;15.23;;
13720;SDS011;6932;51.438;5.470;2023-05-10T02:27:53;19.90;;;14.87;;
13720;SDS011;6932;51.438;5.470;2023-05-10T02:30:22;19.97;;;15.07;;
13720;SDS011;6932;51.438;5.470;2023-05-10T02:32:49;22.47;;;16.87;;
13720;SDS011;6932;51.438;5.470;2023-05-10T02:35:16;21.63;;;17.23;;
13720;SDS011;6932;51.438;5.470;2023-05-10T02:37:43;22.17;;;16.43;;
13720;SDS011;6932;51.438;5.470;2023-05-10T02:40:11;24.90;;;17.43;;
13720;SDS011;6932;51.438;5.470;2023-05-10T02:42:41;22.30;;;17.17;;
13720;SDS011;6932;51.438;5.470;2023-05-10T02:45:13;22.47;;;17.43;;
13720;SDS011;6932;51.438;5.470;2023-05-10T02:47:44;21.80;;;15.73;;
13720;SDS011;6932;51.438;5.470;2023-05-10T02:50:10;22.33;;;16.80;;
13720;SDS011;6932;51.438;5.470;2023-05-10T02:52:51;23.00;;;16.30;;
13720;SDS011;6932;51.438;5.470;2023-05-10T02:55:21;19.87;;;15.20;;
13720;SDS011;6932;51.438;5.470;2023-05-10T02:57:54;19.67;;;14.53;;
13720;SDS011;6932;51.438;5.470;2023-05-10T03:00:24;20.13;;;14.90;;
13720;SDS011;6932;51.438;5.470;2023-05-10T03:02:51;19.80;;;15.20;;
13720;SDS011;6932;51.438;5.470;2023-05-10T03:05:17;18.83;;;14.47;;
13720;SDS011;6932;51.438;5.470;2023-05-10T03:07:43;20.27;;;14.60;;
13720;SDS011;6932;51.438;5.470;2023-05-10T03:10:10;20.60;;;15.07;;
13720;SDS011;6932;51.438;5.470;2023-05-10T03:18:44;19.53;;;14.57;;
13720;SDS011;6932;51.438;5.470;2023-05-10T03:21:18;19.73;;;13.70;;
13720;SDS011;6932;51.438;5.470;2023-05-10T03:26:32;19.63;;;13.97;;
13720;SDS011;6932;51.438;5.470;2023-05-10T03:28:59;18.20;;;12.70;;
13720;SDS011;6932;51.438;5.470;2023-05-10T03:31:27;18.93;;;13.50;;
13720;SDS011;6932;51.438;5.470;2023-05-10T03:33:53;18.63;;;13.43;;
13720;SDS011;6932;51.438;5.470;2023-05-10T03:36:19;18.63;;;12.83;;
13720;SDS011;6932;51.438;5.470;2023-05-10T03:38:44;18.47;;;13.27;;
13720;SDS011;6932;51.438;5.470;2023-05-10T03:41:10;17.83;;;12.77;;
13720;SDS011;6932;51.438;5.470;2023-05-10T03:46:33;16.93;;;11.83;;
13720;SDS011;6932;51.438;5.470;2023-05-10T03:48:59;18.47;;;12.83;;
13720;SDS011;6932;51.438;5.470;2023-05-10T03:51:25;17.23;;;12.83;;
13720;SDS011;6932;51.438;5.470;2023-05-10T03:53:53;17.90;;;13.27;;
13720;SDS011;6932;51.438;5.470;2023-05-10T03:56:20;18.63;;;12.97;;
13720;SDS011;6932;51.438;5.470;2023-05-10T03:58:46;19.10;;;13.93;;
13720;SDS011;6932;51.438;5.470;2023-05-10T04:01:12;19.93;;;14.10;;
13720;SDS011;6932;51.438;5.470;2023-05-10T04:03:38;20.03;;;13.33;;
13720;SDS011;6932;51.438;5.470;2023-05-10T04:06:04;20.00;;;14.27;;
13720;SDS011;6932;51.438;5.470;2023-05-10T04:08:30;19.47;;;13.57;;
13720;SDS011;6932;51.438;5.470;2023-05-10T04:11:06;19.90;;;14.00;;
13720;SDS011;6932;51.438;5.470;2023-05-10T04:13:34;20.83;;;14.37;;
13720;SDS011;6932;51.438;5.470;2023-05-10T04:16:00;24.10;;;16.03;;
13720;SDS011;6932;51.438;5.470;2023-05-10T04:18:26;25.53;;;16.50;;
13720;SDS011;6932;51.438;5.470;2023-05-10T04:20:52;25.10;;;17.43;;
13720;SDS011;6932;51.438;5.470;2023-05-10T04:23:18;26.97;;;17.97;;
13720;SDS011;6932;51.438;5.470;2023-05-10T04:25:44;28.50;;;18.97;;
13720;SDS011;6932;51.438;5.470;2023-05-10T04:28:09;30.87;;;19.47;;
13720;SDS011;6932;51.438;5.470;2023-05-10T04:30:35;27.87;;;19.17;;
13720;SDS011;6932;51.438;5.470;2023-05-10T04:33:02;28.83;;;19.00;;
13720;SDS011;6932;51.438;5.470;2023-05-10T04:35:28;30.45;;;20.77;;
13720;SDS011;6932;51.438;5.470;2023-05-10T04:37:54;29.40;;;19.97;;
13720;SDS011;6932;51.438;5.470;2023-05-10T04:40:20;32.13;;;20.83;;
13720;SDS011;6932;51.438;5.470;2023-05-10T04:42:46;28.43;;;19.13;;
13720;SDS011;6932;51.438;5.470;2023-05-10T04:45:11;29.70;;;18.60;;
13720;SDS011;6932;51.438;5.470;2023-05-10T04:47:39;31.33;;;20.17;;
13720;SDS011;6932;51.438;5.470;2023-05-10T04:50:05;27.87;;;18.47;;
13720;SDS011;6932;51.438;5.470;2023-05-10T04:52:32;27.33;;;18.23;;
13720;SDS011;6932;51.438;5.470;2023-05-10T04:54:58;24.40;;;16.67;;
13720;SDS011;6932;51.438;5.470;2023-05-10T04:57:23;23.60;;;16.33;;
13720;SDS011;6932;51.438;5.470;2023-05-10T04:59:49;24.17;;;16.37;;
13720;SDS011;6932;51.438;5.470;2023-05-10T05:02:15;23.93;;;16.53;;
13720;SDS011;6932;51.438;5.470;2023-05-10T05:04:41;22.63;;;16.00;;
13720;SDS011;6932;51.438;5.470;2023-05-10T05:07:07;22.33;;;15.37;;
13720;SDS011;6932;51.438;5.470;2023-05-10T05:09:33;19.67;;;14.00;;
13720;SDS011;6932;51.438;5.470;2023-05-10T05:11:58;19.10;;;13.13;;
13720;SDS011;6932;51.438;5.470;2023-05-10T05:14:25;17.60;;;12.27;;
13720;SDS011;6932;51.438;5.470;2023-05-10T05:16:51;19.20;;;12.93;;
13720;SDS011;6932;51.438;5.470;2023-05-10T05:19:17;22.33;;;13.47;;
13720;SDS011;6932;51.438;5.470;2023-05-10T05:21:43;18.87;;;12.83;;
13720;SDS011;6932;51.438;5.470;2023-05-10T05:24:09;18.07;;;12.40;;
13720;SDS011;6932;51.438;5.470;2023-05-10T05:26:36;18.07;;;12.33;;
13720;SDS011;6932;51.438;5.470;2023-05-10T05:29:02;19.10;;;12.93;;
13720;SDS011;6932;51.438;5.470;2023-05-10T05:31:28;18.37;;;12.33;;
13720;SDS011;6932;51.438;5.470;2023-05-10T05:33:54;16.60;;;11.60;;
13720;SDS011;6932;51.438;5.470;2023-05-10T05:36:20;16.90;;;11.30;;
13720;SDS011;6932;51.438;5.470;2023-05-10T05:38:46;16.20;;;11.03;;
13720;SDS011;6932;51.438;5.470;2023-05-10T05:41:12;16.07;;;11.13;;
13720;SDS011;6932;51.438;5.470;2023-05-10T05:43:37;16.23;;;10.90;;
13720;SDS011;6932;51.438;5.470;2023-05-10T05:46:03;15.40;;;10.97;;
13720;SDS011;6932;51.438;5.470;2023-05-10T05:48:30;17.40;;;10.77;;
13720;SDS011;6932;51.438;5.470;2023-05-10T05:50:56;16.63;;;10.53;;
13720;SDS011;6932;51.438;5.470;2023-05-10T05:53:22;14.77;;;10.13;;
13720;SDS011;6932;51.438;5.470;2023-05-10T05:55:55;15.60;;;10.20;;
13720;SDS011;6932;51.438;5.470;2023-05-10T05:58:23;15.23;;;10.70;;
13720;SDS011;6932;51.438;5.470;2023-05-10T06:00:50;15.10;;;10.87;;
13720;SDS011;6932;51.438;5.470;2023-05-10T06:03:17;16.03;;;10.60;;
13720;SDS011;6932;51.438;5.470;2023-05-10T06:05:43;14.67;;;10.23;;
13720;SDS011;6932;51.438;5.470;2023-05-10T06:08:09;15.27;;;10.70;;
13720;SDS011;6932;51.438;5.470;2023-05-10T06:10:35;17.33;;;11.50;;
13720;SDS011;6932;51.438;5.470;2023-05-10T06:13:01;16.00;;;10.53;;
13720;SDS011;6932;51.438;5.470;2023-05-10T06:15:27;16.33;;;10.73;;
13720;SDS011;6932;51.438;5.470;2023-05-10T06:17:53;16.00;;;11.00;;
13720;SDS011;6932;51.438;5.470;2023-05-10T06:20:19;15.33;;;10.63;;
13720;SDS011;6932;51.438;5.470;2023-05-10T06:22:45;15.07;;;10.40;;
13720;SDS011;6932;51.438;5.470;2023-05-10T06:25:10;15.53;;;10.57;;
13720;SDS011;6932;51.438;5.470;2023-05-10T06:27:36;18.20;;;11.17;;
13720;SDS011;6932;51.438;5.470;2023-05-10T06:30:02;16.60;;;11.20;;
13720;SDS011;6932;51.438;5.470;2023-05-10T06:32:29;18.27;;;10.83;;
13720;SDS011;6932;51.438;5.470;2023-05-10T06:34:55;15.97;;;11.03;;
13720;SDS011;6932;51.438;5.470;2023-05-10T06:37:21;16.67;;;10.90;;
13720;SDS011;6932;51.438;5.470;2023-05-10T06:39:47;16.37;;;10.70;;
13720;SDS011;6932;51.438;5.470;2023-05-10T06:42:12;16.20;;;11.00;;
13720;SDS011;6932;51.438;5.470;2023-05-10T06:44:38;15.87;;;10.87;;
13720;SDS011;6932;51.438;5.470;2023-05-10T06:47:04;15.37;;;10.73;;
13720;SDS011;6932;51.438;5.470;2023-05-10T06:49:29;16.00;;;10.73;;
13720;SDS011;6932;51.438;5.470;2023-05-10T06:51:55;18.27;;;10.83;;
13720;SDS011;6932;51.438;5.470;2023-05-10T06:54:21;16.90;;;10.90;;
13720;SDS011;6932;51.438;5.470;2023-05-10T06:56:48;14.70;;;10.73;;
13720;SDS011;6932;51.438;5.470;2023-05-10T06:59:13;15.87;;;10.77;;
13720;SDS011;6932;51.438;5.470;2023-05-10T07:01:41;16.70;;;11.70;;
13720;SDS011;6932;51.438;5.470;2023-05-10T07:04:07;16.93;;;11.60;;
13720;SDS011;6932;51.438;5.470;2023-05-10T07:06:33;15.87;;;11.23;;
13720;SDS011;6932;51.438;5.470;2023-05-10T07:08:59;15.77;;;11.33;;
13720;SDS011;6932;51.438;5.470;2023-05-10T07:11:25;15.93;;;11.03;;
13720;SDS011;6932;51.438;5.470;2023-05-10T07:13:51;15.73;;;11.10;;
13720;SDS011;6932;51.438;5.470;2023-05-10T07:16:17;15.27;;;11.00;;
13720;SDS011;6932;51.438;5.470;2023-05-10T07:18:43;14.30;;;10.30;;
13720;SDS011;6932;51.438;5.470;2023-05-10T07:21:09;14.43;;;9.83;;
13720;SDS011;6932;51.438;5.470;2023-05-10T07:23:35;14.90;;;10.53;;
13720;SDS011;6932;51.438;5.470;2023-05-10T07:33:23;14.20;;;9.70;;
13720;SDS011;6932;51.438;5.470;2023-05-10T07:35:49;13.83;;;9.10;;
13720;SDS011;6932;51.438;5.470;2023-05-10T07:38:15;12.83;;;8.23;;
13720;SDS011;6932;51.438;5.470;2023-05-10T07:40:42;12.27;;;8.10;;
13720;SDS011;6932;51.438;5.470;2023-05-10T07:43:08;12.87;;;8.27;;
13720;SDS011;6932;51.438;5.470;2023-05-10T07:45:33;12.27;;;7.60;;
13720;SDS011;6932;51.438;5.470;2023-05-10T07:47:59;12.77;;;7.60;;
13720;SDS011;6932;51.438;5.470;2023-05-10T07:50:25;10.83;;;6.17;;
13720;SDS011;6932;51.438;5.470;2023-05-10T07:52:50;11.03;;;6.30;;
13720;SDS011;6932;51.438;5.470;2023-05-10T07:55:17;10.37;;;6.30;;
13720;SDS011;6932;51.438;5.470;2023-05-10T07:57:43;10.73;;;6.10;;
13720;SDS011;6932;51.438;5.470;2023-05-10T08:00:15;9.53;;;5.50;;
13720;SDS011;6932;51.438;5.470;2023-05-10T08:02:44;8.67;;;5.53;;
13720;SDS011;6932;51.438;5.470;2023-05-10T08:05:10;7.80;;;5.40;;
13720;SDS011;6932;51.438;5.470;2023-05-10T08:10:57;9.37;;;4.90;;
13720;SDS011;6932;51.438;5.470;2023-05-10T08:13:22;8.83;;;4.90;;
13720;SDS011;6932;51.438;5.470;2023-05-10T08:15:48;8.63;;;5.30;;
13720;SDS011;6932;51.438;5.470;2023-05-10T08:18:14;7.90;;;4.87;;
13720;SDS011;6932;51.438;5.470;2023-05-10T08:20:41;8.33;;;4.57;;
13720;SDS011;6932;51.438;5.470;2023-05-10T08:23:06;7.83;;;4.50;;
13720;SDS011;6932;51.438;5.470;2023-05-10T08:25:32;7.30;;;4.50;;
13720;SDS011;6932;51.438;5.470;2023-05-10T08:31:39;8.20;;;4.90;;
13720;SDS011;6932;51.438;5.470;2023-05-10T08:34:04;9.03;;;5.27;;
13720;SDS011;6932;51.438;5.470;2023-05-10T08:36:30;8.87;;;5.17;;
13720;SDS011;6932;51.438;5.470;2023-05-10T08:38:57;11.30;;;5.50;;
13720;SDS011;6932;51.438;5.470;2023-05-10T08:41:23;8.10;;;5.20;;
13720;SDS011;6932;51.438;5.470;2023-05-10T08:43:50;9.57;;;5.20;;
13720;SDS011;6932;51.438;5.470;2023-05-10T08:46:19;8.10;;;5.17;;
13720;SDS011;6932;51.438;5.470;2023-05-10T08:48:46;6.97;;;4.73;;
13720;SDS011;6932;51.438;5.470;2023-05-10T08:51:17;6.20;;;4.30;;
13720;SDS011;6932;51.438;5.470;2023-05-10T08:53:45;8.10;;;4.30;;
13720;SDS011;6932;51.438;5.470;2023-05-10T08:56:11;7.30;;;3.90;;
13720;SDS011;6932;51.438;5.470;2023-05-10T08:58:37;6.77;;;3.90;;
13720;SDS011;6932;51.438;5.470;2023-05-10T09:01:03;7.67;;;4.00;;
13720;SDS011;6932;51.438;5.470;2023-05-10T09:03:30;7.00;;;3.80;;
13720;SDS011;6932;51.438;5.470;2023-05-10T09:05:57;7.17;;;3.60;;
13720;SDS011;6932;51.438;5.470;2023-05-10T09:08:24;5.70;;;3.60;;
13720;SDS011;6932;51.438;5.470;2023-05-10T09:10:51;5.65;;;3.72;;
13720;SDS011;6932;51.438;5.470;2023-05-10T09:13:17;6.33;;;3.73;;
13720;SDS011;6932;51.438;5.470;2023-05-10T09:15:44;5.40;;;3.70;;
13720;SDS011;6932;51.438;5.470;2023-05-10T09:18:11;6.03;;;3.83;;
13720;SDS011;6932;51.438;5.470;2023-05-10T09:20:37;6.80;;;4.30;;
13720;SDS011;6932;51.438;5.470;2023-05-10T09:23:03;8.40;;;4.70;;
13720;SDS011;6932;51.438;5.470;2023-05-10T09:25:29;7.13;;;4.83;;
13720;SDS011;6932;51.438;5.470;2023-05-10T09:27:58;7.57;;;4.47;;
13720;SDS011;6932;51.438;5.470;2023-05-10T09:32:55;6.57;;;4.67;;
13720;SDS011;6932;51.438;5.470;2023-05-10T09:35:24;6.97;;;4.83;;
13720;SDS011;6932;51.438;5.470;2023-05-10T09:37:52;6.50;;;4.80;;
13720;SDS011;6932;51.438;5.470;2023-05-10T09:40:22;6.83;;;4.63;;
13720;SDS011;6932;51.438;5.470;2023-05-10T09:43:04;9.23;;;5.60;;
13720;SDS011;6932;51.438;5.470;2023-05-10T09:45:35;6.57;;;4.90;;
13720;SDS011;6932;51.438;5.470;2023-05-10T09:48:02;9.03;;;6.20;;
13720;SDS011;6932;51.438;5.470;2023-05-10T09:53:47;8.37;;;5.90;;
13720;SDS011;6932;51.438;5.470;2023-05-10T09:56:33;8.63;;;5.80;;
13720;SDS011;6932;51.438;5.470;2023-05-10T09:59:04;8.63;;;5.90;;
13720;SDS011;6932;51.438;5.470;2023-05-10T10:12:43;8.83;;;5.50;;
13720;SDS011;6932;51.438;5.470;2023-05-10T10:15:09;7.77;;;5.20;;
13720;SDS011;6932;51.438;5.470;2023-05-10T10:17:36;8.77;;;5.60;;
13720;SDS011;6932;51.438;5.470;2023-05-10T10:20:05;7.57;;;4.80;;
13720;SDS011;6932;51.438;5.470;2023-05-10T10:22:32;7.47;;;5.20;;
13720;SDS011;6932;51.438;5.470;2023-05-10T10:24:58;6.70;;;4.70;;
13720;SDS011;6932;51.438;5.470;2023-05-10T10:27:28;6.83;;;5.10;;
13720;SDS011;6932;51.438;5.470;2023-05-10T10:47:41;6.03;;;4.43;;
13720;SDS011;6932;51.438;5.470;2023-05-10T10:50:08;10.13;;;5.73;;
13720;SDS011;6932;51.438;5.470;2023-05-10T10:52:44;9.23;;;5.80;;
13720;SDS011;6932;51.438;5.470;2023-05-10T10:57:49;8.87;;;6.47;;
13720;SDS011;6932;51.438;5.470;2023-05-10T11:00:18;10.00;;;6.67;;
13720;SDS011;6932;51.438;5.470;2023-05-10T11:02:48;9.30;;;6.53;;
13720;SDS011;6932;51.438;5.470;2023-05-10T11:22:50;11.67;;;7.63;;
13720;SDS011;6932;51.438;5.470;2023-05-10T11:25:18;10.83;;;8.30;;
13720;SDS011;6932;51.438;5.470;2023-05-10T11:27:44;11.93;;;8.00;;
13720;SDS011;6932;51.438;5.470;2023-05-10T11:30:12;10.87;;;7.90;;
13720;SDS011;6932;51.438;5.470;2023-05-10T11:32:40;11.47;;;8.00;;
13720;SDS011;6932;51.438;5.470;2023-05-10T11:35:09;11.03;;;7.80;;
13720;SDS011;6932;51.438;5.470;2023-05-10T11:37:38;11.63;;;8.40;;
13720;SDS011;6932;51.438;5.470;2023-05-10T11:40:08;11.30;;;7.90;;
13720;SDS011;6932;51.438;5.470;2023-05-10T12:06:03;12.33;;;8.30;;
13720;SDS011;6932;51.438;5.470;2023-05-10T12:08:29;12.13;;;8.43;;
13720;SDS011;6932;51.438;5.470;2023-05-10T12:11:17;12.17;;;8.80;;
13720;SDS011;6932;51.438;5.470;2023-05-10T12:13:42;12.33;;;8.93;;
13720;SDS011;6932;51.438;5.470;2023-05-10T12:16:16;12.17;;;8.40;;
13720;SDS011;6932;51.438;5.470;2023-05-10T12:18:47;12.27;;;8.87;;
13720;SDS011;6932;51.438;5.470;2023-05-10T12:36:09;13.57;;;8.40;;
13720;SDS011;6932;51.438;5.470;2023-05-10T12:38:40;9.77;;;6.53;;
13720;SDS011;6932;51.438;5.470;2023-05-10T12:41:09;6.23;;;4.33;;
13720;SDS011;6932;51.438;5.470;2023-05-10T12:43:38;5.07;;;2.90;;
13720;SDS011;6932;51.438;5.470;2023-05-10T12:46:08;2.30;;;2.10;;
13720;SDS011;6932;51.438;5.470;2023-05-10T12:48:36;2.93;;;2.10;;
13720;SDS011;6932;51.438;5.470;2023-05-10T12:51:04;2.37;;;1.97;;
13720;SDS011;6932;51.438;5.470;2023-05-10T12:53:34;2.47;;;2.27;;
13720;SDS011;6932;51.438;5.470;2023-05-10T12:56:01;2.50;;;2.10;;
13720;SDS011;6932;51.438;5.470;2023-05-10T12:58:27;3.10;;;2.50;;
13720;SDS011;6932;51.438;5.470;2023-05-10T13:00:53;4.20;;;3.00;;
13720;SDS011;6932;51.438;5.470;2023-05-10T13:03:21;4.27;;;2.63;;
13720;SDS011;6932;51.438;5.470;2023-05-10T13:05:47;3.70;;;2.93;;
13720;SDS011;6932;51.438;5.470;2023-05-10T13:08:13;5.80;;;3.30;;
13720;SDS011;6932;51.438;5.470;2023-05-10T13:10:39;6.20;;;4.03;;
13720;SDS011;6932;51.438;5.470;2023-05-10T13:13:05;7.97;;;4.60;;
13720;SDS011;6932;51.438;5.470;2023-05-10T13:15:44;6.60;;;4.77;;
13720;SDS011;6932;51.438;5.470;2023-05-10T13:18:10;6.70;;;4.97;;
13720;SDS011;6932;51.438;5.470;2023-05-10T13:20:36;7.53;;;5.20;;
13720;SDS011;6932;51.438;5.470;2023-05-10T13:23:02;7.83;;;5.90;;
13720;SDS011;6932;51.438;5.470;2023-05-10T13:25:27;8.43;;;6.10;;
13720;SDS011;6932;51.438;5.470;2023-05-10T13:27:53;9.43;;;6.40;;
13720;SDS011;6932;51.438;5.470;2023-05-10T13:30:19;9.07;;;6.23;;
13720;SDS011;6932;51.438;5.470;2023-05-10T13:32:45;10.00;;;7.13;;
13720;SDS011;6932;51.438;5.470;2023-05-10T13:35:11;9.73;;;6.87;;
13720;SDS011;6932;51.438;5.470;2023-05-10T13:37:36;11.27;;;8.20;;
13720;SDS011;6932;51.438;5.470;2023-05-10T13:40:03;11.33;;;8.30;;
13720;SDS011;6932;51.438;5.470;2023-05-10T13:42:29;13.07;;;8.50;;
13720;SDS011;6932;51.438;5.470;2023-05-10T13:44:56;11.63;;;8.53;;
13720;SDS011;6932;51.438;5.470;2023-05-10T13:47:22;11.53;;;7.90;;
13720;SDS011;6932;51.438;5.470;2023-05-10T13:49:48;10.17;;;7.63;;
13720;SDS011;6932;51.438;5.470;2023-05-10T13:52:13;9.27;;;6.53;;
13720;SDS011;6932;51.438;5.470;2023-05-10T13:54:39;8.90;;;5.60;;
13720;SDS011;6932;51.438;5.470;2023-05-10T13:57:05;8.87;;;6.07;;
13720;SDS011;6932;51.438;5.470;2023-05-10T13:59:31;8.30;;;5.83;;
13720;SDS011;6932;51.438;5.470;2023-05-10T15:39:23;8.93;;;4.43;;
13720;SDS011;6932;51.438;5.470;2023-05-10T15:41:49;6.90;;;4.23;;
13720;SDS011;6932;51.438;5.470;2023-05-10T15:44:15;6.00;;;3.90;;
13720;SDS011;6932;51.438;5.470;2023-05-10T15:46:41;5.43;;;3.53;;
13720;SDS011;6932;51.438;5.470;2023-05-10T15:49:07;6.03;;;3.63;;
13720;SDS011;6932;51.438;5.470;2023-05-10T15:51:33;5.63;;;3.57;;
13720;SDS011;6932;51.438;5.470;2023-05-10T15:53:59;5.27;;;3.20;;
13720;SDS011;6932;51.438;5.470;2023-05-10T16:00:08;4.60;;;3.23;;
13720;SDS011;6932;51.438;5.470;2023-05-10T16:02:36;4.10;;;3.43;;
13720;SDS011;6932;51.438;5.470;2023-05-10T16:05:02;5.33;;;3.37;;
13720;SDS011;6932;51.438;5.470;2023-05-10T16:07:28;6.67;;;3.70;;
13720;SDS011;6932;51.438;5.470;2023-05-10T16:09:54;6.50;;;3.90;;
13720;SDS011;6932;51.438;5.470;2023-05-10T16:12:20;5.47;;;3.70;;
13720;SDS011;6932;51.438;5.470;2023-05-10T16:18:27;5.80;;;3.60;;
13720;SDS011;6932;51.438;5.470;2023-05-10T16:20:53;6.30;;;3.80;;
13720;SDS011;6932;51.438;5.470;2023-05-10T16:23:19;5.63;;;4.17;;
13720;SDS011;6932;51.438;5.470;2023-05-10T16:25:45;5.23;;;3.50;;
13720;SDS011;6932;51.438;5.470;2023-05-10T16:28:11;7.13;;;4.60;;
13720;SDS011;6932;51.438;5.470;2023-05-10T16:30:36;5.73;;;3.67;;
13720;SDS011;6932;51.438;5.470;2023-05-10T16:33:02;5.43;;;3.50;;
13720;SDS011;6932;51.438;5.470;2023-05-10T16:35:28;5.87;;;3.80;;
13720;SDS011;6932;51.438;5.470;2023-05-10T16:37:54;5.37;;;3.60;;
13720;SDS011;6932;51.438;5.470;2023-05-10T16:40:21;4.77;;;3.23;;
13720;SDS011;6932;51.438;5.470;2023-05-10T16:42:48;4.27;;;3.47;;
13720;SDS011;6932;51.438;5.470;2023-05-10T16:45:13;4.93;;;3.67;;
13720;SDS011;6932;51.438;5.470;2023-05-10T16:47:40;7.13;;;3.80;;
13720;SDS011;6932;51.438;5.470;2023-05-10T16:50:07;4.67;;;3.20;;
13720;SDS011;6932;51.438;5.470;2023-05-10T16:52:33;5.30;;;3.40;;
13720;SDS011;6932;51.438;5.470;2023-05-10T16:55:00;5.40;;;3.57;;
13720;SDS011;6932;51.438;5.470;2023-05-10T16:57:27;5.60;;;3.33;;
13720;SDS011;6932;51.438;5.470;2023-05-10T16:59:52;5.57;;;3.40;;
13720;SDS011;6932;51.438;5.470;2023-05-10T17:02:21;5.07;;;3.30;;
13720;SDS011;6932;51.438;5.470;2023-05-10T17:04:49;5.07;;;3.50;;
13720;SDS011;6932;51.438;5.470;2023-05-10T17:07:17;6.13;;;3.40;;
13720;SDS011;6932;51.438;5.470;2023-05-10T17:09:43;4.67;;;3.40;;
13720;SDS011;6932;51.438;5.470;2023-05-10T17:15:24;5.03;;;3.50;;
13720;SDS011;6932;51.438;5.470;2023-05-10T17:17:50;5.83;;;3.93;;
13720;SDS011;6932;51.438;5.470;2023-05-10T17:20:16;5.70;;;3.60;;
13720;SDS011;6932;51.438;5.470;2023-05-10T17:22:42;4.53;;;3.20;;
13720;SDS011;6932;51.438;5.470;2023-05-10T17:25:08;4.53;;;3.40;;
13720;SDS011;6932;51.438;5.470;2023-05-10T17:27:34;6.43;;;3.20;;
13720;SDS011;6932;51.438;5.470;2023-05-10T17:30:00;5.13;;;3.70;;
13720;SDS011;6932;51.438;5.470;2023-05-10T17:32:25;4.23;;;3.20;;
13720;SDS011;6932;51.438;5.470;2023-05-10T17:38:32;4.57;;;3.30;;
13720;SDS011;6932;51.438;5.470;2023-05-10T17:40:58;5.10;;;3.20;;
13720;SDS011;6932;51.438;5.470;2023-05-10T17:43:23;4.50;;;3.57;;
13720;SDS011;6932;51.438;5.470;2023-05-10T17:45:50;5.20;;;3.40;;
13720;SDS011;6932;51.438;5.470;2023-05-10T17:48:15;4.47;;;3.50;;
13720;SDS011;6932;51.438;5.470;2023-05-10T17:50:41;5.13;;;3.50;;
13720;SDS011;6932;51.438;5.470;2023-05-10T17:53:07;5.27;;;3.80;;
13720;SDS011;6932;51.438;5.470;2023-05-10T17:55:33;5.37;;;3.73;;
13720;SDS011;6932;51.438;5.470;2023-05-10T17:58:17;5.23;;;3.53;;
13720;SDS011;6932;51.438;5.470;2023-05-10T18:00:43;5.67;;;3.73;;
13720;SDS011;6932;51.438;5.470;2023-05-10T18:03:09;5.23;;;3.97;;
13720;SDS011;6932;51.438;5.470;2023-05-10T18:05:36;6.33;;;4.00;;
13720;SDS011;6932;51.438;5.470;2023-05-10T18:08:03;5.13;;;4.20;;
13720;SDS011;6932;51.438;5.470;2023-05-10T18:10:29;6.03;;;4.40;;
13720;SDS011;6932;51.438;5.470;2023-05-10T18:12:55;5.30;;;3.67;;
13720;SDS011;6932;51.438;5.470;2023-05-10T18:15:26;5.97;;;4.50;;
13720;SDS011;6932;51.438;5.470;2023-05-10T18:17:52;6.07;;;4.10;;
13720;SDS011;6932;51.438;5.470;2023-05-10T18:20:17;5.90;;;4.27;;
13720;SDS011;6932;51.438;5.470;2023-05-10T18:22:43;7.50;;;4.67;;
13720;SDS011;6932;51.438;5.470;2023-05-10T18:25:09;5.90;;;4.33;;
13720;SDS011;6932;51.438;5.470;2023-05-10T18:27:35;6.73;;;4.80;;
13720;SDS011;6932;51.438;5.470;2023-05-10T18:30:00;5.57;;;4.50;;
13720;SDS011;6932;51.438;5.470;2023-05-10T18:32:26;6.97;;;4.90;;
13720;SDS011;6932;51.438;5.470;2023-05-10T18:34:52;7.40;;;4.90;;
13720;SDS011;6932;51.438;5.470;2023-05-10T18:37:18;6.93;;;4.73;;
13720;SDS011;6932;51.438;5.470;2023-05-10T18:39:44;7.60;;;5.17;;
13720;SDS011;6932;51.438;5.470;2023-05-10T18:42:10;8.30;;;5.63;;
13720;SDS011;6932;51.438;5.470;2023-05-10T18:44:36;7.90;;;5.60;;
13720;SDS011;6932;51.438;5.470;2023-05-10T18:47:01;8.07;;;5.57;;
13720;SDS011;6932;51.438;5.470;2023-05-10T18:49:27;8.60;;;5.70;;
13720;SDS011;6932;51.438;5.470;2023-05-10T18:51:53;8.33;;;5.87;;